Time;durP1;ratioP1;P1;durP2;ratioP2;P2;SDS_P1;SDS_P2;PMS_P1;PMS_P2;Temp;Humidity;BMP_temperature;BMP_pressure;BME280_temperature;BME280_humidity;BME280_pressure;Samples;Min_cycle;Max_cycle;Signal;HPM_P1;HPM_P2
2021/10/14 00:01:07;;;;;;;21.67;9.80;;;;;;;11.66;100.00;102666.28;4951224;28;20073;-78
2021/10/14 00:03:41;;;;;;;18.95;10.23;;;;;;;11.62;100.00;102661.88;4952721;28;20141;-78
2021/10/14 00:06:09;;;;;;;22.45;11.23;;;;;;;11.63;100.00;102666.34;4950555;28;20527;-77
2021/10/14 00:08:37;;;;;;;20.83;10.45;;;;;;;11.64;100.00;102664.53;4951414;28;20058;-78
2021/10/14 00:11:07;;;;;;;25.20;11.60;;;;;;;11.65;100.00;102655.63;4949936;28;20273;-78
2021/10/14 00:13:35;;;;;;;21.23;11.10;;;;;;;11.67;100.00;102653.81;4951015;28;20066;-78
2021/10/14 00:16:04;;;;;;;20.23;11.65;;;;;;;11.69;100.00;102655.56;4956228;28;20277;-78
2021/10/14 00:18:32;;;;;;;22.60;11.00;;;;;;;11.70;100.00;102648.47;4952027;28;20082;-78
2021/10/14 00:21:00;;;;;;;26.65;12.38;;;;;;;11.70;100.00;102651.13;4952632;28;20495;-79
2021/10/14 00:23:28;;;;;;;27.08;11.88;;;;;;;11.70;100.00;102651.13;4949858;28;20054;-79
2021/10/14 00:25:56;;;;;;;27.73;12.93;;;;;;;11.72;100.00;102646.66;4953514;28;20336;-78
2021/10/14 00:28:26;;;;;;;25.52;12.20;;;;;;;11.76;100.00;102640.34;4949973;28;20058;-74
2021/10/14 00:30:54;;;;;;;28.90;12.18;;;;;;;11.80;100.00;102646.56;4951861;28;20860;-74
2021/10/14 00:33:24;;;;;;;25.20;11.95;;;;;;;11.82;100.00;102636.78;4951630;28;20054;-74
2021/10/14 00:35:52;;;;;;;28.35;12.88;;;;;;;11.84;100.00;102637.63;4946438;28;20098;-72
2021/10/14 00:38:19;;;;;;;31.60;13.63;;;;;;;11.88;100.00;102632.22;4954337;28;20097;-79
2021/10/14 00:40:48;;;;;;;29.38;13.25;;;;;;;11.90;100.00;102634.88;4946998;28;20216;-79
2021/10/14 00:43:16;;;;;;;28.10;12.80;;;;;;;11.94;100.00;102637.56;4954733;28;20078;-77
2021/10/14 00:45:45;;;;;;;28.60;13.55;;;;;;;11.92;100.00;102634.03;4949045;28;20057;-77
2021/10/14 00:48:13;;;;;;;27.52;13.20;;;;;;;11.96;100.00;102634.88;4950060;28;20057;-77
2021/10/14 00:50:41;;;;;;;26.80;12.10;;;;;;;12.00;100.00;102630.38;4948799;28;20407;-80
2021/10/14 00:53:10;;;;;;;25.30;11.88;;;;;;;12.00;100.00;102619.69;4936002;28;20142;-77
2021/10/14 00:55:39;;;;;;;27.60;12.05;;;;;;;12.06;100.00;102627.66;4949440;28;20133;-77
2021/10/14 00:58:08;;;;;;;26.55;12.55;;;;;;;12.04;100.00;102611.63;4953715;28;20058;-80
2021/10/14 01:00:36;;;;;;;29.98;12.90;;;;;;;12.07;100.00;102621.38;4953287;28;20185;-76
2021/10/14 01:03:05;;;;;;;30.48;14.32;;;;;;;12.06;100.00;102619.63;4947792;28;20149;-77
2021/10/14 01:05:33;;;;;;;30.65;14.27;;;;;;;12.09;100.00;102607.09;4950665;28;20496;-77
2021/10/14 01:08:02;;;;;;;29.42;13.43;;;;;;;12.12;100.00;102609.75;4952118;28;20292;-79
2021/10/14 01:10:33;;;;;;;25.90;12.98;;;;;;;12.15;100.00;102603.47;4950092;28;20526;-77
2021/10/14 01:13:03;;;;;;;32.55;14.60;;;;;;;12.21;100.00;102608.75;4950532;28;20078;-80
2021/10/14 01:15:31;;;;;;;30.02;14.77;;;;;;;12.18;100.00;102603.44;4952582;28;20090;-77
2021/10/14 01:17:58;;;;;;;29.98;15.45;;;;;;;12.18;100.00;102602.56;4953076;28;20516;-78
2021/10/14 01:20:28;;;;;;;31.50;14.85;;;;;;;12.17;100.00;102598.97;4948683;28;20558;-72
2021/10/14 01:22:57;;;;;;;31.35;14.48;;;;;;;12.19;100.00;102593.63;4951017;28;20317;-72
2021/10/14 01:25:25;;;;;;;28.50;13.52;;;;;;;12.19;100.00;102594.53;4947697;28;20051;-72
2021/10/14 01:27:54;;;;;;;27.13;12.88;;;;;;;12.20;100.00;102595.41;4953159;28;20137;-71
2021/10/14 01:30:21;;;;;;;27.48;12.82;;;;;;;12.18;100.00;102598.09;4949501;28;20116;-71
2021/10/14 01:32:50;;;;;;;29.48;13.40;;;;;;;12.17;100.00;102595.44;4950950;28;20057;-72
2021/10/14 01:35:18;;;;;;;26.23;13.45;;;;;;;12.13;100.00;102590.09;4948327;28;20215;-72
2021/10/14 01:37:47;;;;;;;26.80;14.20;;;;;;;12.10;100.00;102589.25;4950417;28;20101;-71
2021/10/14 01:40:15;;;;;;;29.42;13.63;;;;;;;12.09;100.00;102587.50;4954569;28;20059;-72
2021/10/14 01:42:43;;;;;;;29.23;13.80;;;;;;;12.07;100.00;102594.63;4949520;28;20051;-72
2021/10/14 01:45:11;;;;;;;28.83;14.10;;;;;;;12.03;100.00;102593.78;4951122;28;20058;-72
2021/10/14 01:47:38;;;;;;;28.65;13.38;;;;;;;12.01;100.00;102598.25;4948373;28;20051;-72
2021/10/14 01:50:08;;;;;;;33.88;15.43;;;;;;;12.01;100.00;102600.94;4950275;28;20246;-72
2021/10/14 01:52:36;;;;;;;30.48;15.68;;;;;;;11.96;100.00;102598.31;4948267;28;20109;-73
2021/10/14 01:55:06;;;;;;;34.75;15.80;;;;;;;11.96;100.00;102600.09;4947936;28;20487;-73
2021/10/14 01:57:34;;;;;;;28.75;15.13;;;;;;;11.93;100.00;102594.78;4949055;28;20629;-72
2021/10/14 02:00:02;;;;;;;38.33;16.48;;;;;;;11.91;100.00;102592.13;4950800;28;20212;-72
2021/10/14 02:02:30;;;;;;;32.10;16.60;;;;;;;11.90;100.00;102593.00;4953043;28;21557;-72
2021/10/14 02:04:58;;;;;;;40.83;18.33;;;;;;;11.89;100.00;102582.31;4947206;28;20570;-72
2021/10/14 02:07:26;;;;;;;32.72;15.32;;;;;;;11.89;100.00;102591.22;4952131;28;20125;-72
2021/10/14 02:09:54;;;;;;;39.15;16.92;;;;;;;11.87;100.00;102586.78;4947515;28;20192;-72
2021/10/14 02:12:23;;;;;;;35.95;16.27;;;;;;;11.85;100.00;102584.13;4947772;28;20161;-72
2021/10/14 02:14:51;;;;;;;34.55;15.30;;;;;;;11.86;100.00;102587.69;4947777;28;20121;-72
2021/10/14 02:17:19;;;;;;;33.25;15.88;;;;;;;11.88;100.00;102586.75;4951768;28;20313;-72
2021/10/14 02:19:46;;;;;;;29.48;14.50;;;;;;;11.86;100.00;102583.22;4951814;28;20067;-72
2021/10/14 02:22:14;;;;;;;32.95;15.55;;;;;;;11.87;100.00;102584.13;4945407;28;20105;-73
2021/10/14 02:24:42;;;;;;;29.95;15.35;;;;;;;11.86;100.00;102580.53;4951166;28;20500;-72
2021/10/14 02:27:10;;;;;;;29.30;13.82;;;;;;;11.87;100.00;102578.78;4942291;28;20062;-73
2021/10/14 02:29:39;;;;;;;29.52;14.38;;;;;;;11.86;100.00;102579.66;4948078;28;20051;-73
2021/10/14 02:32:07;;;;;;;29.10;15.13;;;;;;;11.85;100.00;102573.44;4947885;28;20059;-73
2021/10/14 02:34:35;;;;;;;31.10;15.30;;;;;;;11.85;100.00;102584.13;4947774;28;20126;-76
2021/10/14 02:37:03;;;;;;;30.10;13.95;;;;;;;11.86;100.00;102575.19;4945436;28;20055;-76
2021/10/14 02:39:31;;;;;;;29.40;14.18;;;;;;;11.86;100.00;102567.16;4950774;28;21865;-76
2021/10/14 02:41:59;;;;;;;30.80;14.85;;;;;;;11.87;100.00;102565.41;4950980;28;20521;-76
2021/10/14 02:44:27;;;;;;;28.63;13.63;;;;;;;11.88;100.00;102565.34;4942442;28;20142;-76
2021/10/14 02:47:20;;;;;;;29.20;14.20;;;;;;;11.88;100.00;102560.00;4948638;28;20097;-77
2021/10/14 02:49:47;;;;;;;34.10;14.85;;;;;;;11.88;100.00;102561.81;4944981;28;20054;-76
2021/10/14 02:52:15;;;;;;;32.70;14.70;;;;;;;11.88;100.00;102556.44;4946272;28;20120;-76
2021/10/14 02:54:43;;;;;;;30.73;14.50;;;;;;;11.88;100.00;102551.09;4946888;28;20101;-76
2021/10/14 02:57:11;;;;;;;26.17;13.63;;;;;;;11.88;100.00;102554.66;4947772;28;20537;-75
2021/10/14 02:59:38;;;;;;;27.75;13.60;;;;;;;11.89;100.00;102552.88;4946176;28;20415;-77
2021/10/14 03:02:06;;;;;;;29.48;14.38;;;;;;;11.89;100.00;102552.88;4944068;28;20058;-75
2021/10/14 03:04:35;;;;;;;30.08;14.68;;;;;;;11.89;100.00;102552.88;4950115;28;20106;-75
2021/10/14 03:07:04;;;;;;;26.80;13.82;;;;;;;11.89;100.00;102553.75;4946938;28;20074;-75
2021/10/14 03:09:32;;;;;;;29.02;14.45;;;;;;;11.90;100.00;102557.31;4949058;28;20058;-74
2021/10/14 03:12:01;;;;;;;31.38;13.50;;;;;;;11.91;100.00;102554.66;4946733;28;20089;-74
2021/10/14 03:14:29;;;;;;;29.25;14.35;;;;;;;11.95;100.00;102555.50;4950142;28;20571;-74
2021/10/14 03:16:56;;;;;;;30.42;14.40;;;;;;;12.05;100.00;102558.97;4948822;28;20082;-74
2021/10/14 03:19:24;;;;;;;31.88;16.10;;;;;;;12.09;100.00;102560.75;4947166;28;20326;-74
2021/10/14 03:21:53;;;;;;;37.60;16.70;;;;;;;12.11;100.00;102558.94;4949571;28;20046;-75
2021/10/14 03:24:22;;;;;;;32.42;17.17;;;;;;;12.12;100.00;102555.31;4949801;28;20117;-74
2021/10/14 03:26:49;;;;;;;33.15;16.50;;;;;;;12.12;100.00;102555.31;4950836;28;20046;-74
2021/10/14 03:29:17;;;;;;;32.80;15.23;;;;;;;12.10;100.00;102552.66;4944623;28;20125;-75
2021/10/14 03:31:45;;;;;;;35.55;15.98;;;;;;;12.10;100.00;102562.50;4949354;28;20145;-74
2021/10/14 03:34:13;;;;;;;30.73;16.48;;;;;;;12.11;100.00;102559.81;4951209;28;20043;-74
2021/10/14 03:36:41;;;;;;;34.15;16.08;;;;;;;12.12;100.00;102556.25;4952149;28;20575;-75
2021/10/14 03:39:10;;;;;;;33.28;14.82;;;;;;;12.14;100.00;102558.91;4952021;28;20054;-74
2021/10/14 03:41:38;;;;;;;33.45;16.25;;;;;;;12.11;100.00;102543.75;4952164;28;20135;-74
2021/10/14 03:44:06;;;;;;;28.38;13.65;;;;;;;12.12;100.00;102555.31;4954618;28;20039;-75
2021/10/14 03:46:34;;;;;;;36.50;14.55;;;;;;;12.12;100.00;102556.25;4948476;28;20567;-74
2021/10/14 03:49:01;;;;;;;33.17;14.35;;;;;;;12.14;100.00;102554.44;4951880;28;20347;-75
2021/10/14 03:51:34;;;;;;;28.88;13.65;;;;;;;12.17;100.00;102556.16;4946641;28;20162;-75
2021/10/14 03:54:02;;;;;;;30.58;14.75;;;;;;;12.17;100.00;102542.78;4950806;28;20055;-72
2021/10/14 03:56:31;;;;;;;30.00;14.93;;;;;;;12.15;100.00;102550.81;4950916;28;20051;-71
2021/10/14 03:58:59;;;;;;;32.15;14.27;;;;;;;12.17;100.00;102552.63;4951088;28;20063;-71
2021/10/14 04:01:26;;;;;;;34.47;15.55;;;;;;;12.19;100.00;102548.13;4948895;28;20626;-72
2021/10/14 04:03:55;;;;;;;32.40;15.43;;;;;;;12.18;100.00;102549.03;4951731;28;20451;-72
2021/10/14 04:06:23;;;;;;;27.50;14.88;;;;;;;12.19;100.00;102558.81;4953621;28;20128;-71
2021/10/14 04:08:51;;;;;;;29.02;13.98;;;;;;;12.21;100.00;102549.88;4949360;28;20090;-72
2021/10/14 04:11:19;;;;;;;30.80;13.90;;;;;;;12.21;100.00;102555.25;4951094;28;20534;-74
2021/10/14 04:14:14;;;;;;;28.55;12.80;;;;;;;12.22;100.00;102559.66;4953459;28;20390;-73
2021/10/14 04:16:42;;;;;;;24.63;12.68;;;;;;;12.22;100.00;102551.66;4951946;28;20047;-73
2021/10/14 04:19:10;;;;;;;24.00;12.25;;;;;;;12.25;100.00;102548.94;4950370;28;20063;-72
2021/10/14 04:21:39;;;;;;;25.83;11.82;;;;;;;12.26;100.00;102548.03;4950903;28;20083;-71
2021/10/14 04:24:07;;;;;;;25.45;11.82;;;;;;;12.24;100.00;102551.63;4951322;28;20046;-72
2021/10/14 04:26:35;;;;;;;21.92;10.38;;;;;;;12.25;100.00;102548.06;4953182;28;21462;-72
2021/10/14 04:29:05;;;;;;;21.98;10.10;;;;;;;12.27;100.00;102539.09;4954678;28;21059;-76
2021/10/14 04:32:00;;;;;;;23.17;11.63;;;;;;;12.30;100.00;102540.84;4953774;28;20595;-76
2021/10/14 04:34:28;;;;;;;23.33;10.02;;;;;;;12.25;100.00;102538.22;4950560;28;20245;-72
2021/10/14 04:36:56;;;;;;;23.70;10.38;;;;;;;12.26;100.00;102534.66;4947194;28;20149;-72
2021/10/14 04:39:24;;;;;;;21.30;9.30;;;;;;;12.26;100.00;102539.09;4952138;28;20061;-76
2021/10/14 04:41:52;;;;;;;25.08;9.75;;;;;;;12.27;100.00;102538.22;4948328;28;20050;-76
2021/10/14 04:44:20;;;;;;;24.67;9.70;;;;;;;12.26;100.00;102536.44;4950227;28;20145;-76
2021/10/14 04:46:48;;;;;;;20.92;9.95;;;;;;;12.25;100.00;102530.19;4950604;28;20141;-76
2021/10/14 04:49:20;;;;;;;23.23;10.00;;;;;;;12.24;100.00;102541.84;4949558;28;20400;-77
2021/10/14 04:51:48;;;;;;;22.60;10.23;;;;;;;12.27;100.00;102531.06;4951692;28;20507;-77
2021/10/14 04:54:16;;;;;;;21.20;9.35;;;;;;;12.23;100.00;102532.03;4952861;28;20488;-77
2021/10/14 04:56:44;;;;;;;22.58;10.43;;;;;;;12.25;100.00;102537.34;4951523;28;20102;-76
2021/10/14 04:59:12;;;;;;;19.15;9.82;;;;;;;12.23;100.00;102529.34;4949257;28;20061;-78
2021/10/14 05:01:41;;;;;;;18.65;9.20;;;;;;;12.23;100.00;102539.16;4951522;28;20075;-77
2021/10/14 05:04:09;;;;;;;22.27;9.98;;;;;;;12.23;100.00;102532.03;4948816;28;20055;-78
2021/10/14 05:06:40;;;;;;;23.60;9.13;;;;;;;12.23;100.00;102539.16;4950376;28;20078;-77
2021/10/14 05:09:08;;;;;;;22.48;10.45;;;;;;;12.23;100.00;102537.38;4948384;28;20402;-79
2021/10/14 05:11:36;;;;;;;24.70;9.55;;;;;;;12.20;100.00;102537.41;4949621;28;20064;-72
2021/10/14 05:14:04;;;;;;;19.98;9.30;;;;;;;12.22;100.00;102535.59;4951272;28;20042;-72
2021/10/14 05:16:33;;;;;;;23.30;9.07;;;;;;;12.20;100.00;102537.41;4947543;28;20405;-72
2021/10/14 05:19:02;;;;;;;20.90;9.73;;;;;;;12.21;100.00;102535.59;4951658;28;20505;-72
2021/10/14 05:21:32;;;;;;;20.70;10.05;;;;;;;12.19;100.00;102534.75;4948262;28;20050;-74
2021/10/14 05:24:02;;;;;;;21.17;8.90;;;;;;;12.20;100.00;102541.88;4949153;28;20062;-73
2021/10/14 05:26:31;;;;;;;19.60;8.95;;;;;;;12.20;100.00;102539.19;4948164;28;20051;-72
2021/10/14 05:29:00;;;;;;;17.33;8.55;;;;;;;12.17;100.00;102533.88;4948308;28;20146;-72
2021/10/14 05:31:28;;;;;;;19.27;8.55;;;;;;;12.18;100.00;102535.66;4946699;28;20433;-72
2021/10/14 05:33:56;;;;;;;24.00;9.57;;;;;;;12.18;100.00;102533.00;4952721;28;20160;-72
2021/10/14 05:36:49;;;;;;;16.60;8.57;;;;;;;12.17;100.00;102536.56;4951391;28;20058;-72
2021/10/14 05:39:18;;;;;;;18.85;8.77;;;;;;;12.17;100.00;102534.75;4950735;28;20087;-72
2021/10/14 05:41:46;;;;;;;18.70;8.25;;;;;;;12.19;100.00;102527.63;4950551;28;20054;-72
2021/10/14 05:44:13;;;;;;;15.35;7.80;;;;;;;12.17;100.00;102532.06;4942813;28;20488;-73
2021/10/14 05:47:05;;;;;;;18.10;8.43;;;;;;;12.15;100.00;102528.53;4951089;28;20384;-72
2021/10/14 05:49:33;;;;;;;16.80;8.13;;;;;;;12.17;100.00;102521.38;4949231;28;20055;-72
2021/10/14 05:52:01;;;;;;;14.90;7.32;;;;;;;12.15;100.00;102529.41;4949428;28;20061;-72
2021/10/14 05:54:30;;;;;;;16.05;7.32;;;;;;;12.17;100.00;102524.06;4939815;28;20213;-72
2021/10/14 05:56:59;;;;;;;17.63;7.85;;;;;;;12.14;100.00;102526.78;4945558;28;20750;-73
2021/10/14 05:59:27;;;;;;;15.73;7.78;;;;;;;12.14;100.00;102527.66;4946377;28;20046;-77
2021/10/14 06:01:56;;;;;;;16.73;7.70;;;;;;;12.14;100.00;102519.63;4952472;28;20057;-77
2021/10/14 06:04:24;;;;;;;16.05;7.53;;;;;;;12.15;100.00;102523.19;4948389;28;20125;-77
2021/10/14 06:06:52;;;;;;;15.45;7.93;;;;;;;12.13;100.00;102525.00;4947953;28;20059;-77
2021/10/14 06:09:20;;;;;;;17.55;8.30;;;;;;;12.13;100.00;102516.97;4947539;28;20047;-77
2021/10/14 06:11:50;;;;;;;17.90;8.40;;;;;;;12.11;100.00;102527.69;4947467;28;20055;-72
2021/10/14 06:14:20;;;;;;;14.13;7.47;;;;;;;12.12;100.00;102526.81;4946475;28;20062;-77
2021/10/14 06:16:48;;;;;;;14.85;7.60;;;;;;;12.13;100.00;102523.22;4949246;28;20526;-76
2021/10/14 06:19:15;;;;;;;15.60;7.32;;;;;;;12.14;100.00;102527.66;4947954;28;20047;-76
2021/10/14 06:21:43;;;;;;;14.88;7.60;;;;;;;12.12;100.00;102515.19;4949880;28;20215;-76
2021/10/14 06:24:12;;;;;;;16.75;6.97;;;;;;;12.13;100.00;102515.19;4947315;28;20050;-76
2021/10/14 06:26:42;;;;;;;14.50;8.02;;;;;;;12.13;100.00;102512.50;4946519;28;20679;-76
2021/10/14 06:29:12;;;;;;;18.60;7.50;;;;;;;12.18;100.00;102515.13;4947304;28;20062;-76
2021/10/14 06:31:40;;;;;;;15.55;8.18;;;;;;;12.19;100.00;102519.59;4948169;28;20110;-76
2021/10/14 06:34:09;;;;;;;16.65;7.53;;;;;;;12.22;100.00;102511.50;4943938;28;20570;-76
2021/10/14 06:36:42;;;;;;;17.88;8.70;;;;;;;12.23;100.00;102510.59;4949223;28;20232;-76
2021/10/14 06:39:10;;;;;;;19.33;8.18;;;;;;;12.24;100.00;102509.72;4945342;28;20251;-76
2021/10/14 06:41:38;;;;;;;16.52;8.52;;;;;;;12.24;100.00;102509.72;4947794;28;20419;-76
2021/10/14 06:44:07;;;;;;;14.18;7.97;;;;;;;12.24;100.00;102508.81;4955656;28;20102;-76
2021/10/14 06:47:01;;;;;;;14.68;8.27;;;;;;;12.26;100.00;102507.91;4954449;28;20931;-71
2021/10/14 06:49:52;;;;;;;14.90;8.30;;;;;;;12.25;100.00;102514.16;4955584;28;20427;-72
2021/10/14 06:52:20;;;;;;;13.07;8.02;;;;;;;12.27;100.00;102508.78;4941896;28;20447;-71
2021/10/14 06:54:48;;;;;;;13.93;8.05;;;;;;;12.26;100.00;102513.25;4949275;28;20444;-71
2021/10/14 06:57:16;;;;;;;14.82;7.60;;;;;;;12.29;100.00;102507.88;4949565;28;20053;-71
2021/10/14 06:59:44;;;;;;;20.05;9.38;;;;;;;12.30;100.00;102511.41;4939900;28;20054;-71
2021/10/14 07:02:37;;;;;;;12.88;8.13;;;;;;;12.28;100.00;102500.72;4947733;28;20183;-72
2021/10/14 07:05:06;;;;;;;14.45;8.27;;;;;;;12.30;100.00;102511.41;4950237;28;20258;-71
2021/10/14 07:07:34;;;;;;;14.27;7.70;;;;;;;12.30;100.00;102508.75;4951363;28;20509;-71
2021/10/14 07:10:02;;;;;;;15.32;8.45;;;;;;;12.31;100.00;102518.56;4953765;28;20315;-73
2021/10/14 07:12:33;;;;;;;16.08;9.25;;;;;;;12.32;100.00;102514.94;4954925;28;20047;-73
2021/10/14 07:15:00;;;;;;;17.00;8.57;;;;;;;12.34;100.00;102505.09;4953731;28;20108;-73
2021/10/14 07:17:28;;;;;;;20.17;9.25;;;;;;;12.36;100.00;102511.34;4950211;28;20081;-73
2021/10/14 07:19:58;;;;;;;15.30;8.23;;;;;;;12.38;100.00;102511.31;4954130;28;20765;-73
2021/10/14 07:22:25;;;;;;;19.98;9.05;;;;;;;12.40;100.00;102515.75;4952046;28;20101;-73
2021/10/14 07:25:17;;;;;;;18.52;9.00;;;;;;;12.42;100.00;102513.94;4954516;28;20450;-71
2021/10/14 07:28:11;;;;;;;16.08;8.27;;;;;;;12.45;100.00;102505.88;4951125;28;20166;-72
2021/10/14 07:31:02;;;;;;;17.38;8.90;;;;;;;12.47;100.00;102503.16;4954362;28;20085;-71
2021/10/14 07:33:31;;;;;;;13.63;8.18;;;;;;;12.48;100.00;102496.88;4952519;28;20870;-72
2021/10/14 07:36:05;;;;;;;20.95;9.52;;;;;;;12.50;100.00;102498.66;4955979;28;20527;-71
2021/10/14 07:38:58;;;;;;;18.85;8.90;;;;;;;12.51;100.00;102497.75;4950797;28;20077;-71
2021/10/14 07:41:26;;;;;;;18.67;9.55;;;;;;;12.52;100.00;102495.97;4951326;28;20055;-71
2021/10/14 07:44:19;;;;;;;13.75;8.23;;;;;;;12.54;100.00;102503.97;4950332;28;20161;-71
2021/10/14 07:46:47;;;;;;;17.08;8.90;;;;;;;12.55;100.00;102498.59;4954711;28;20046;-71
2021/10/14 07:49:17;;;;;;;15.80;8.05;;;;;;;12.56;100.00;102500.34;4950884;28;20054;-71
2021/10/14 07:51:46;;;;;;;20.52;9.25;;;;;;;12.58;100.00;102505.69;4956930;28;20059;-71
2021/10/14 07:54:14;;;;;;;20.92;10.10;;;;;;;12.59;100.00;102503.00;4949490;28;20142;-74
2021/10/14 07:56:43;;;;;;;21.25;10.63;;;;;;;12.61;100.00;102501.16;4950266;28;20146;-74
2021/10/14 07:59:10;;;;;;;18.08;8.77;;;;;;;12.64;100.00;102506.50;4949868;28;20309;-70
2021/10/14 08:02:03;;;;;;;19.42;9.82;;;;;;;12.68;100.00;102501.97;4950321;28;20057;-70
2021/10/14 08:04:55;;;;;;;21.75;9.95;;;;;;;12.75;100.00;102505.44;4954907;28;20058;-73
2021/10/14 08:07:24;;;;;;;23.98;9.68;;;;;;;12.77;100.00;102507.22;4949674;28;20062;-73
2021/10/14 08:09:53;;;;;;;20.10;10.27;;;;;;;12.82;100.00;102513.38;4953254;28;20054;-73
2021/10/14 08:12:21;;;;;;;21.77;10.30;;;;;;;12.84;100.00;102516.03;4949827;28;20122;-73
2021/10/14 08:15:14;;;;;;;18.73;8.73;;;;;;;12.88;100.00;102507.91;4958317;28;20157;-73
2021/10/14 08:18:05;;;;;;;20.35;10.07;;;;;;;12.93;100.00;102507.84;4942710;28;20058;-74
2021/10/14 08:20:35;;;;;;;22.10;10.85;;;;;;;13.00;100.00;102503.28;4943644;28;20560;-73
2021/10/14 08:23:07;;;;;;;24.20;10.43;;;;;;;13.08;100.00;102502.25;4954863;28;20134;-73
2021/10/14 08:25:36;;;;;;;23.58;10.48;;;;;;;13.15;100.00;102507.53;4951568;28;20083;-73
2021/10/14 08:28:03;;;;;;;21.42;10.38;;;;;;;13.17;100.00;102508.38;4946772;28;20057;-69
2021/10/14 08:30:31;;;;;;;25.38;11.85;;;;;;;13.17;100.00;102505.69;4950128;28;20711;-72
2021/10/14 08:32:59;;;;;;;26.70;11.05;;;;;;;13.20;100.00;102505.66;4949392;28;20074;-72
2021/10/14 08:35:35;;;;;;;19.52;10.45;;;;;;;13.26;100.00;102505.53;4943232;28;20055;-70
2021/10/14 08:38:03;;;;;;;26.05;11.02;;;;;;;13.30;100.00;102503.69;4942400;28;20117;-70
2021/10/14 08:40:33;;;;;;;22.60;11.48;;;;;;;13.33;100.00;102496.53;4949814;28;20491;-69
2021/10/14 08:43:04;;;;;;;25.10;11.88;;;;;;;13.38;100.00;102504.47;4954936;28;20105;-70
2021/10/14 08:45:34;;;;;;;24.73;11.40;;;;;;;13.43;100.00;102521.38;4950175;28;20417;-70
2021/10/14 08:48:03;;;;;;;26.30;12.48;;;;;;;13.44;100.00;102510.63;4951563;28;20204;-70
2021/10/14 08:50:32;;;;;;;27.33;12.82;;;;;;;13.43;100.00;102506.19;4948422;28;20059;-70
2021/10/14 08:53:01;;;;;;;25.33;13.27;;;;;;;13.42;100.00;102504.41;4943739;28;20058;-70
2021/10/14 08:55:30;;;;;;;28.75;15.10;;;;;;;13.42;100.00;102516.94;4947981;28;20046;-70
2021/10/14 08:58:00;;;;;;;31.75;15.95;;;;;;;13.39;100.00;102507.13;4951087;28;20475;-70
2021/10/14 09:01:09;;;;;;;31.00;15.50;;;;;;;13.44;100.00;102518.66;4950644;28;20297;-70
2021/10/14 09:03:43;;;;;;;28.23;13.98;;;;;;;13.52;100.00;102507.81;4947661;28;20058;-70
2021/10/14 09:06:13;;;;;;;31.13;15.13;;;;;;;13.54;100.00;102510.47;4952321;28;20053;-70
2021/10/14 09:08:43;;;;;;;28.90;14.10;;;;;;;13.63;100.00;102511.16;4949423;28;20094;-70
2021/10/14 09:11:14;;;;;;;27.75;14.38;;;;;;;13.73;100.00;102511.88;4956746;28;20050;-70
2021/10/14 09:13:51;;;;;;;31.58;15.20;;;;;;;13.79;100.00;102514.47;4946839;28;20047;-70
2021/10/14 09:16:30;;;;;;;29.38;15.57;;;;;;;13.89;100.00;102507.09;4950137;28;20047;-70
2021/10/14 09:19:12;;;;;;;28.23;15.80;;;;;;;13.88;100.00;102502.66;4945797;28;20051;-69
2021/10/14 09:22:06;;;;;;;26.65;14.70;;;;;;;13.99;100.00;102508.69;4949068;28;20062;-69
2021/10/14 09:24:36;;;;;;;27.05;14.77;;;;;;;14.06;100.00;102503.22;4948074;28;20062;-69
2021/10/14 09:27:27;;;;;;;23.00;13.38;;;;;;;14.15;100.00;102503.91;4950301;28;20575;-69
2021/10/14 09:29:59;;;;;;;22.30;11.52;;;;;;;14.17;100.00;102503.88;4945525;28;20491;-69
2021/10/14 09:32:27;;;;;;;21.42;11.52;;;;;;;14.19;100.00;102496.69;4943070;28;20058;-70
2021/10/14 09:35:02;;;;;;;21.20;11.48;;;;;;;14.19;100.00;102496.69;4947392;28;22204;-72
2021/10/14 09:37:33;;;;;;;19.95;11.35;;;;;;;14.18;100.00;102498.47;4954360;28;20043;-70
2021/10/14 09:40:04;;;;;;;20.77;10.35;;;;;;;14.18;100.00;102498.47;4949307;28;20113;-70
2021/10/14 09:42:41;;;;;;;16.23;8.60;;;;;;;14.24;100.00;102489.41;4949305;28;20051;-70
2021/10/14 09:45:30;;;;;;;14.98;7.03;;;;;;;14.37;100.00;102492.72;4948979;28;20058;-73
2021/10/14 09:48:11;;;;;;;13.38;4.95;;;;;;;14.59;100.00;102492.25;4948941;28;20043;-72
2021/10/14 09:50:44;;;;;;;10.90;5.38;;;;;;;14.72;100.00;102489.25;4949853;28;20150;-73
2021/10/14 09:53:14;;;;;;;11.15;5.40;;;;;;;14.77;100.00;102488.28;4944264;28;20499;-72
2021/10/14 09:56:06;;;;;;;14.85;8.07;;;;;;;14.76;100.00;102492.75;4949857;28;20150;-72
2021/10/14 09:58:39;;;;;;;15.82;7.82;;;;;;;14.88;100.00;102495.19;4949159;28;20060;-72
2021/10/14 10:01:10;;;;;;;13.73;5.30;;;;;;;14.84;98.09;102489.91;4953814;28;20057;-72
2021/10/14 10:03:41;;;;;;;9.55;4.43;;;;;;;14.89;94.47;102487.97;4951524;28;20233;-72
2021/10/14 10:06:11;;;;;;;8.90;4.38;;;;;;;15.01;97.56;102489.50;4947864;28;20415;-72
2021/10/14 10:08:43;;;;;;;7.45;4.18;;;;;;;15.01;94.48;102490.38;4945698;28;20071;-71
2021/10/14 10:11:16;;;;;;;11.68;4.65;;;;;;;14.82;90.58;102492.63;4949637;28;20055;-72
2021/10/14 10:13:46;;;;;;;8.98;3.92;;;;;;;14.90;92.61;102487.06;4945903;28;20062;-71
2021/10/14 10:16:18;;;;;;;8.20;4.55;;;;;;;14.92;90.61;102485.22;4948269;28;20061;-72
2021/10/14 10:18:46;;;;;;;7.65;3.60;;;;;;;15.14;91.53;102474.84;4948155;28;21302;-71
2021/10/14 10:21:39;;;;;;;8.60;4.30;;;;;;;15.18;91.84;102479.19;4950564;28;20055;-71
2021/10/14 10:24:08;;;;;;;10.77;4.90;;;;;;;15.14;89.95;102464.06;4949067;28;20051;-71
2021/10/14 10:26:50;;;;;;;8.73;4.55;;;;;;;15.32;92.47;102468.97;4948463;28;20285;-71
2021/10/14 10:29:44;;;;;;;7.45;3.83;;;;;;;15.43;90.78;102463.31;4952731;28;20061;-71
2021/10/14 10:32:16;;;;;;;;;;;;;;;15.35;90.59;102464.44;4949607;28;20391;-70
2021/10/14 10:34:54;;;;;;;9.27;3.90;;;;;;;15.37;91.02;102463.47;4951193;28;19957;-71
2021/10/14 10:37:31;;;;;;;10.23;4.57;;;;;;;15.38;90.61;102459.00;4946153;28;20050;-70
2021/10/14 10:40:02;;;;;;;11.70;4.88;;;;;;;15.28;88.22;102458.34;4949212;28;20582;-72
2021/10/14 10:42:32;;;;;;;10.75;4.90;;;;;;;15.30;90.29;102453.78;4957247;28;20160;-71
2021/10/14 10:45:09;;;;;;;10.10;4.90;;;;;;;15.35;89.71;102459.06;4949803;28;20055;-71
2021/10/14 10:48:05;;;;;;;11.45;4.82;;;;;;;15.28;88.34;102455.66;4943964;28;20568;-70
2021/10/14 10:50:58;;;;;;;9.35;4.63;;;;;;;15.07;87.63;102455.28;4947237;28;20543;-71
2021/10/14 10:53:38;;;;;;;10.27;5.05;;;;;;;15.19;89.08;102448.72;4942596;28;20490;-70
2021/10/14 10:56:33;;;;;;;10.55;4.60;;;;;;;15.24;87.29;102446.78;4947087;28;20062;-71
2021/10/14 10:59:03;;;;;;;9.75;5.00;;;;;;;15.45;87.91;102445.31;4944187;28;20487;-73
2021/10/14 11:01:31;;;;;;;10.63;5.32;;;;;;;15.54;87.17;102437.94;4950517;28;20169;-73
2021/10/14 11:04:02;;;;;;;10.23;4.90;;;;;;;15.54;86.38;102437.94;4944277;28;20122;-69
2021/10/14 11:06:32;;;;;;;11.48;5.13;;;;;;;15.48;85.99;102437.16;4946834;28;20047;-69
2021/10/14 11:09:02;;;;;;;10.60;5.00;;;;;;;15.57;88.00;102440.53;4939637;28;20480;-69
2021/10/14 11:12:04;;;;;;;9.07;4.75;;;;;;;15.86;87.72;102429.84;4939105;28;20144;-69
2021/10/14 11:14:38;;;;;;;10.70;4.90;;;;;;;16.06;86.25;102433.78;4948836;28;20106;-69
2021/10/14 11:17:10;;;;;;;12.10;5.63;;;;;;;16.10;85.59;102435.44;4947091;28;20090;-71
2021/10/14 11:20:09;;;;;;;9.85;5.57;;;;;;;15.97;86.11;102429.56;4945816;28;20166;-69
2021/10/14 11:22:48;;;;;;;10.77;5.47;;;;;;;15.72;85.00;102415.88;4946620;28;20078;-69
2021/10/14 11:25:16;;;;;;;12.23;6.03;;;;;;;15.94;87.02;102416.19;4946878;28;20057;-70
2021/10/14 11:28:49;;;;;;;11.80;5.35;;;;;;;15.81;85.74;102417.47;4945931;28;20361;-70